createdAt,value
2022-10-14T00:01:12.573Z,15.32
2022-10-14T00:03:40.317Z,15.20
2022-10-14T00:06:10.094Z,15.22
2022-10-14T00:08:37.074Z,15.20
2022-10-14T00:11:11.113Z,15.19
2022-10-14T00:13:38.564Z,15.18
2022-10-14T00:16:06.854Z,15.19
2022-10-14T00:18:33.901Z,15.13
2022-10-14T00:21:02.753Z,15.15
2022-10-14T00:23:30.474Z,15.10
2022-10-14T00:25:57.413Z,15.07
2022-10-14T00:28:30.004Z,15.06
2022-10-14T00:31:00.035Z,15.06
2022-10-14T00:33:27.854Z,15.03
2022-10-14T00:36:02.533Z,15.03
2022-10-14T00:38:35.313Z,14.96
2022-10-14T00:41:02.714Z,14.96
2022-10-14T00:43:50.415Z,14.97
2022-10-14T00:46:17.593Z,14.93
2022-10-14T00:48:44.635Z,14.91
2022-10-14T00:51:12.034Z,14.90
2022-10-14T00:53:42.557Z,14.86
2022-10-14T00:56:12.013Z,14.86
2022-10-14T00:58:39.556Z,14.82
2022-10-14T01:01:08.239Z,14.77
2022-10-14T01:03:35.413Z,14.75
2022-10-14T01:06:18.154Z,14.72
2022-10-14T01:08:53.836Z,14.71
2022-10-14T01:11:34.554Z,14.70
2022-10-14T01:14:17.014Z,14.69
2022-10-14T01:16:59.517Z,14.66
2022-10-14T01:20:00.094Z,14.63
2022-10-14T01:22:44.776Z,14.60
2022-10-14T01:25:31.833Z,14.51
2022-10-14T01:28:37.148Z,14.51
2022-10-14T01:31:11.413Z,14.47
2022-10-14T01:33:43.853Z,14.41
2022-10-14T01:36:23.681Z,14.37
2022-10-14T01:39:08.894Z,14.37
2022-10-14T01:41:40.897Z,14.32
2022-10-14T01:44:11.315Z,14.32
2022-10-14T01:46:43.613Z,14.30
2022-10-14T01:49:19.994Z,14.24
2022-10-14T01:51:54.942Z,14.24
2022-10-14T01:54:33.734Z,14.21
2022-10-14T01:57:05.773Z,14.17
2022-10-14T01:59:34.394Z,14.13
2022-10-14T02:02:01.438Z,14.10
2022-10-14T02:04:29.173Z,14.08
2022-10-14T02:07:26.202Z,14.01
2022-10-14T02:10:18.133Z,13.97
2022-10-14T02:13:03.515Z,13.84
2022-10-14T02:16:06.673Z,13.76
2022-10-14T02:18:53.974Z,13.78
2022-10-14T02:21:32.853Z,13.68
2022-10-14T02:24:09.913Z,13.66
2022-10-14T02:26:38.697Z,13.64
2022-10-14T02:29:06.493Z,13.60
2022-10-14T02:31:35.513Z,13.66
2022-10-14T02:34:06.093Z,13.62
2022-10-14T02:36:35.694Z,13.51
2022-10-14T02:39:08.216Z,13.58
2022-10-14T02:41:38.274Z,13.58
2022-10-14T02:44:08.744Z,13.59
2022-10-14T02:46:36.193Z,13.59
2022-10-14T02:49:03.273Z,13.60
2022-10-14T02:51:30.454Z,13.58
2022-10-14T02:53:58.115Z,13.63
2022-10-14T02:56:27.394Z,13.62
2022-10-14T02:58:54.434Z,13.65
2022-10-14T03:01:23.039Z,13.63
2022-10-14T03:03:50.035Z,13.61
2022-10-14T03:06:17.652Z,13.60
2022-10-14T03:08:45.333Z,13.52
2022-10-14T03:11:12.638Z,13.54
2022-10-14T03:13:41.153Z,13.57
2022-10-14T03:16:10.493Z,13.61
2022-10-14T03:18:42.273Z,13.62
2022-10-14T03:21:20.560Z,13.63
2022-10-14T03:23:47.593Z,13.67
2022-10-14T03:26:14.613Z,13.61
2022-10-14T03:28:46.207Z,13.57
2022-10-14T03:31:19.454Z,13.47
2022-10-14T03:34:00.350Z,13.48
2022-10-14T03:36:28.801Z,13.49
2022-10-14T03:38:57.717Z,13.50
2022-10-14T03:41:56.876Z,13.51
2022-10-14T03:44:32.881Z,13.50
2022-10-14T03:47:16.854Z,13.50
2022-10-14T03:49:44.914Z,13.45
2022-10-14T03:52:21.061Z,13.47
2022-10-14T03:54:59.569Z,13.45
2022-10-14T03:57:27.473Z,13.44
2022-10-14T03:59:57.233Z,13.43
2022-10-14T04:02:29.773Z,13.41
2022-10-14T04:05:00.909Z,13.40
2022-10-14T04:07:29.034Z,13.40
2022-10-14T04:09:57.974Z,13.37
2022-10-14T04:12:25.733Z,13.37
2022-10-14T04:15:15.643Z,13.38
2022-10-14T04:18:01.453Z,13.34
2022-10-14T04:20:29.326Z,13.34
2022-10-14T04:22:59.843Z,13.33
2022-10-14T04:25:27.803Z,13.27
2022-10-14T04:28:01.964Z,13.23
2022-10-14T04:30:40.364Z,13.19
2022-10-14T04:33:11.265Z,13.15
2022-10-14T04:35:38.294Z,13.12
2022-10-14T04:38:09.317Z,13.06
2022-10-14T04:40:46.534Z,13.03
2022-10-14T04:43:13.578Z,13.02
2022-10-14T04:45:42.385Z,13.03
2022-10-14T04:48:11.094Z,13.00
2022-10-14T04:50:42.266Z,13.02
2022-10-14T04:53:35.003Z,13.00
2022-10-14T04:56:22.272Z,13.01
2022-10-14T04:58:56.158Z,13.00
2022-10-14T05:01:34.048Z,13.00
2022-10-14T05:04:01.951Z,13.00
2022-10-14T05:06:32.534Z,13.01
2022-10-14T05:08:59.902Z,13.02
2022-10-14T05:11:27.133Z,13.04
2022-10-14T05:13:56.725Z,13.03
2022-10-14T05:16:26.095Z,13.03
2022-10-14T05:18:53.999Z,13.03
2022-10-14T05:21:22.081Z,13.02
2022-10-14T05:24:13.241Z,13.01
2022-10-14T05:26:41.319Z,13.00
2022-10-14T05:29:12.491Z,13.00
2022-10-14T05:31:41.183Z,12.98
2022-10-14T05:34:29.743Z,12.98
2022-10-14T05:36:57.733Z,13.00
2022-10-14T05:39:25.681Z,13.04
2022-10-14T05:41:56.135Z,12.98
2022-10-14T05:44:26.675Z,12.92
2022-10-14T05:46:53.857Z,12.92
2022-10-14T05:49:21.215Z,12.91
2022-10-14T05:51:48.504Z,12.95
2022-10-14T05:54:20.917Z,13.00
2022-10-14T05:56:50.971Z,13.03
2022-10-14T05:59:19.159Z,13.05
2022-10-14T06:01:47.112Z,13.07
2022-10-14T06:04:21.567Z,13.15
2022-10-14T06:06:48.596Z,13.20
2022-10-14T06:09:16.257Z,13.23
2022-10-14T06:11:43.377Z,13.27
2022-10-14T06:14:10.408Z,13.32
2022-10-14T06:16:37.489Z,13.36
2022-10-14T06:19:06.665Z,13.40
2022-10-14T06:21:33.626Z,13.45
2022-10-14T06:24:00.649Z,13.53
2022-10-14T06:26:27.956Z,13.61
2022-10-14T06:28:55.039Z,13.72
2022-10-14T06:31:22.180Z,13.77
2022-10-14T06:33:49.325Z,13.84
2022-10-14T06:36:16.316Z,13.91
2022-10-14T06:38:43.435Z,14.00
2022-10-14T06:41:10.808Z,14.10
2022-10-14T06:43:38.294Z,14.19
2022-10-14T06:46:05.746Z,14.26
2022-10-14T06:48:32.778Z,14.38
2022-10-14T06:51:01.046Z,14.49
2022-10-14T06:53:28.267Z,14.60
2022-10-14T06:56:03.177Z,14.74
2022-10-14T06:58:30.729Z,14.80
2022-10-14T07:01:08.596Z,14.91
2022-10-14T07:03:36.927Z,14.95
2022-10-14T07:06:08.057Z,15.06
2022-10-14T07:08:35.566Z,15.19
2022-10-14T07:11:02.586Z,15.33
2022-10-14T07:13:29.682Z,15.43
2022-10-14T07:15:56.747Z,15.53
2022-10-14T07:18:23.723Z,15.65
2022-10-14T07:20:50.807Z,15.77
2022-10-14T07:23:17.806Z,15.92
2022-10-14T07:25:44.920Z,16.07
2022-10-14T07:28:11.984Z,16.14
2022-10-14T07:30:39.252Z,16.15
2022-10-14T07:33:06.276Z,16.18
2022-10-14T07:35:33.255Z,16.22
2022-10-14T07:38:00.489Z,16.23
2022-10-14T07:40:27.861Z,16.24
2022-10-14T07:42:55.077Z,16.31
2022-10-14T07:45:22.057Z,16.36
2022-10-14T07:47:50.688Z,16.45
2022-10-14T07:50:18.236Z,16.55
2022-10-14T07:52:45.415Z,16.67
2022-10-14T07:55:12.727Z,16.72
2022-10-14T07:57:39.991Z,16.73
2022-10-14T08:00:07.738Z,16.69
2022-10-14T08:02:40.922Z,16.65
2022-10-14T08:05:33.037Z,16.60
2022-10-14T08:07:55.237Z,16.58
2022-10-14T08:10:22.308Z,16.52
2022-10-14T08:12:49.266Z,16.44
2022-10-14T08:15:16.377Z,16.45
2022-10-14T08:17:43.288Z,16.47
2022-10-14T08:20:10.434Z,16.51
2022-10-14T08:22:37.522Z,16.56
2022-10-14T08:25:04.734Z,16.65
2022-10-14T08:27:31.696Z,16.74
2022-10-14T08:29:58.701Z,16.80
2022-10-14T08:32:25.692Z,16.80
2022-10-14T08:34:52.692Z,16.95
2022-10-14T08:37:19.807Z,17.09
2022-10-14T08:39:46.780Z,17.23
2022-10-14T08:42:24.017Z,17.25
2022-10-14T08:44:55.927Z,17.29
2022-10-14T08:47:34.997Z,17.43
2022-10-14T08:50:07.768Z,17.50
2022-10-14T08:52:46.666Z,17.53
2022-10-14T08:55:34.068Z,17.64
2022-10-14T08:58:11.351Z,17.81
2022-10-14T09:00:41.698Z,17.97
2022-10-14T09:03:20.249Z,18.05
2022-10-14T09:05:57.910Z,18.26
2022-10-14T09:08:31.241Z,18.32
2022-10-14T09:10:59.223Z,18.47
2022-10-14T09:13:33.416Z,18.56
2022-10-14T09:16:22.338Z,18.78
2022-10-14T09:19:01.643Z,18.95
2022-10-14T09:24:32.394Z,19.30
2022-10-14T09:27:06.166Z,19.50
2022-10-14T09:29:54.390Z,19.65
2022-10-14T09:32:41.048Z,19.72
2022-10-14T09:35:36.856Z,19.91
2022-10-14T09:38:04.316Z,20.12
2022-10-14T09:40:42.964Z,20.23
2022-10-14T09:43:09.868Z,20.35
2022-10-14T09:46:08.133Z,20.50
2022-10-14T09:48:48.705Z,20.69
2022-10-14T09:51:24.056Z,20.83
2022-10-14T09:53:54.781Z,20.92
2022-10-14T09:56:38.979Z,21.05
2022-10-14T09:59:27.924Z,21.14
2022-10-14T10:01:57.799Z,21.22
2022-10-14T10:04:34.956Z,21.23
2022-10-14T10:07:06.126Z,21.27
2022-10-14T10:09:34.436Z,21.26
2022-10-14T10:12:15.618Z,21.27
2022-10-14T10:14:55.830Z,21.24
2022-10-14T10:17:23.587Z,21.29
2022-10-14T10:20:06.353Z,21.41
2022-10-14T10:22:39.148Z,21.57
2022-10-14T10:25:09.078Z,21.70
2022-10-14T10:27:45.886Z,21.82
2022-10-14T10:30:21.616Z,21.92
2022-10-14T10:33:03.507Z,22.11
2022-10-14T10:35:49.185Z,22.23
2022-10-14T10:38:35.017Z,22.27
2022-10-14T10:41:37.307Z,22.39
2022-10-14T10:44:30.957Z,22.35
2022-10-14T10:47:31.736Z,22.34
2022-10-14T10:50:24.633Z,22.32
2022-10-14T10:53:16.090Z,22.44
2022-10-14T10:55:58.469Z,22.54
2022-10-14T10:58:41.245Z,22.78
2022-10-14T11:13:33.138Z,22.24
2022-10-14T11:16:23.830Z,22.24
2022-10-14T11:19:15.456Z,22.34
2022-10-14T11:21:54.557Z,22.49
2022-10-14T11:24:35.828Z,22.73
2022-10-14T11:27:31.425Z,23.03
2022-10-14T11:30:04.383Z,23.11
2022-10-14T11:32:38.165Z,23.14
2022-10-14T11:35:45.570Z,23.01
2022-10-14T11:41:29.506Z,22.57
2022-10-14T11:44:27.201Z,22.49
2022-10-14T11:46:56.701Z,22.29
2022-10-14T11:49:31.888Z,22.14
2022-10-14T11:52:04.376Z,21.98
2022-10-14T11:54:42.811Z,21.82
2022-10-14T11:57:32.136Z,21.71
2022-10-14T12:00:39.453Z,21.56
2022-10-14T12:03:51.153Z,21.40
2022-10-14T12:06:39.736Z,21.27
2022-10-14T12:09:28.089Z,21.11
2022-10-14T12:12:03.380Z,21.01
2022-10-14T12:14:35.254Z,20.91
2022-10-14T12:17:18.320Z,20.83
2022-10-14T12:19:45.858Z,20.78
2022-10-14T12:22:25.672Z,20.70
2022-10-14T12:25:17.568Z,20.62
2022-10-14T12:27:44.978Z,20.62
2022-10-14T12:30:38.775Z,20.60
2022-10-14T12:33:11.886Z,20.55
2022-10-14T12:36:01.185Z,20.59
2022-10-14T12:38:30.706Z,20.60
2022-10-14T12:41:35.294Z,20.82
2022-10-14T12:44:05.518Z,20.87
2022-10-14T12:46:32.544Z,21.19
2022-10-14T12:49:00.688Z,21.32
2022-10-14T12:51:28.306Z,21.44
2022-10-14T12:54:05.380Z,21.65
2022-10-14T12:56:39.410Z,22.01
2022-10-14T12:59:20.449Z,22.49
2022-10-14T13:01:55.187Z,22.86
2022-10-14T13:04:22.626Z,23.16
2022-10-14T13:07:52.216Z,23.50
2022-10-14T13:10:47.118Z,23.77
2022-10-14T13:13:42.556Z,24.18
2022-10-14T13:16:11.020Z,24.60
2022-10-14T13:18:43.687Z,24.68
2022-10-14T13:21:26.640Z,24.89
2022-10-14T13:23:55.381Z,25.30
2022-10-14T13:26:43.628Z,25.90
2022-10-14T13:29:20.287Z,26.47
2022-10-14T13:32:08.396Z,26.85
2022-10-14T13:34:57.588Z,27.56
2022-10-14T13:37:42.039Z,27.82
2022-10-14T13:40:35.312Z,28.47
2022-10-14T13:43:42.861Z,28.99
2022-10-14T13:46:09.688Z,28.82
2022-10-14T13:48:41.336Z,29.26
2022-10-14T13:51:36.993Z,29.76
2022-10-14T13:54:25.833Z,28.93
2022-10-14T14:02:51.467Z,28.89
2022-10-14T14:05:26.463Z,28.27
2022-10-14T14:11:03.691Z,27.33
2022-10-14T14:13:30.695Z,26.71
2022-10-14T14:15:57.603Z,26.13
2022-10-14T14:19:04.010Z,25.10
2022-10-14T14:21:34.617Z,24.61
2022-10-14T14:24:02.427Z,24.39
2022-10-14T14:26:39.823Z,23.95
2022-10-14T14:29:22.865Z,23.31
2022-10-14T14:32:07.968Z,23.17
2022-10-14T14:34:38.186Z,22.90
2022-10-14T14:40:21.747Z,22.30
2022-10-14T14:42:52.619Z,22.14
2022-10-14T14:45:26.164Z,21.94
2022-10-14T14:47:56.977Z,21.87
2022-10-14T14:50:38.675Z,21.69
2022-10-14T14:53:17.648Z,21.54
2022-10-14T14:55:58.389Z,21.48
2022-10-14T14:58:25.327Z,21.38
2022-10-14T15:00:55.132Z,21.26
2022-10-14T15:03:24.615Z,21.14
2022-10-14T15:06:00.189Z,20.99
2022-10-14T15:08:34.817Z,20.88
2022-10-14T15:11:02.258Z,20.76
2022-10-14T15:13:38.759Z,20.61
2022-10-14T15:16:07.138Z,20.56
2022-10-14T15:18:37.632Z,20.45
2022-10-14T15:21:19.649Z,20.33
2022-10-14T15:23:49.521Z,20.25
2022-10-14T15:26:33.815Z,20.09
2022-10-14T15:29:13.891Z,20.05
2022-10-14T15:31:43.509Z,19.96
2022-10-14T15:34:18.516Z,19.78
2022-10-14T15:36:45.787Z,19.75
2022-10-14T15:39:14.386Z,19.61
2022-10-14T15:41:42.416Z,19.44
2022-10-14T15:44:09.297Z,19.29
2022-10-14T15:46:56.285Z,19.26
2022-10-14T15:49:30.384Z,19.14
2022-10-14T15:51:57.415Z,19.02
2022-10-14T15:54:27.685Z,19.02
2022-10-14T15:59:44.805Z,18.85
2022-10-14T16:02:23.782Z,18.80
2022-10-14T16:05:18.398Z,18.75
2022-10-14T16:07:40.166Z,18.71
2022-10-14T16:10:08.989Z,18.64
2022-10-14T16:12:35.977Z,18.58
2022-10-14T16:15:07.059Z,18.52
2022-10-14T16:17:34.085Z,18.44
2022-10-14T16:20:01.018Z,18.40
2022-10-14T16:22:28.096Z,18.35
2022-10-14T16:24:55.042Z,18.29
2022-10-14T16:27:24.518Z,18.24
2022-10-14T16:29:51.708Z,18.16
2022-10-14T16:32:19.603Z,18.11
2022-10-14T16:34:46.546Z,18.04
2022-10-14T16:37:13.537Z,18.01
2022-10-14T16:39:40.456Z,17.96
2022-10-14T16:42:08.328Z,17.89
2022-10-14T16:44:35.377Z,17.86
2022-10-14T16:47:17.442Z,17.77
2022-10-14T16:49:49.487Z,17.71
2022-10-14T16:52:16.600Z,17.68
2022-10-14T16:54:43.607Z,17.64
2022-10-14T16:57:11.144Z,17.61
2022-10-14T16:59:38.516Z,17.59
2022-10-14T17:02:10.677Z,17.58
2022-10-14T17:04:39.399Z,17.56
2022-10-14T17:07:09.416Z,17.52
2022-10-14T17:09:37.279Z,17.48
2022-10-14T17:12:08.045Z,17.39
2022-10-14T17:14:40.068Z,17.29
2022-10-14T17:17:07.208Z,17.21
2022-10-14T17:19:34.139Z,17.13
2022-10-14T17:22:02.263Z,17.11
2022-10-14T17:24:29.756Z,17.05
2022-10-14T17:26:57.148Z,16.99
2022-10-14T17:29:24.356Z,16.94
2022-10-14T17:31:52.204Z,16.87
2022-10-14T17:34:19.285Z,16.86
2022-10-14T17:36:46.267Z,16.81
2022-10-14T17:39:18.908Z,16.78
2022-10-14T17:41:51.432Z,16.74
2022-10-14T17:44:19.039Z,16.72
2022-10-14T17:46:45.996Z,16.70
2022-10-14T17:49:13.340Z,16.67
2022-10-14T17:51:40.353Z,16.62
2022-10-14T17:54:11.275Z,16.60
2022-10-14T17:56:39.131Z,16.56
2022-10-14T17:59:10.602Z,16.51
2022-10-14T18:04:25.900Z,16.48
2022-10-14T18:06:54.342Z,16.45
2022-10-14T18:09:21.509Z,16.40
2022-10-14T18:14:41.463Z,16.35
2022-10-14T18:17:11.140Z,16.33
2022-10-14T18:19:40.362Z,16.34
2022-10-14T18:22:07.746Z,16.32
2022-10-14T18:24:38.606Z,16.30
2022-10-14T18:27:05.741Z,16.28
2022-10-14T18:29:32.699Z,16.26
2022-10-14T18:31:59.687Z,16.27
2022-10-14T18:34:27.578Z,16.26
2022-10-14T18:36:54.559Z,16.22
2022-10-14T18:39:21.617Z,16.21
2022-10-14T18:41:49.020Z,16.20
2022-10-14T18:44:16.157Z,16.15
2022-10-14T18:46:43.207Z,16.15
2022-10-14T18:49:11.823Z,16.15
2022-10-14T18:51:40.381Z,16.01
2022-10-14T18:54:11.556Z,16.06
2022-10-14T18:56:41.511Z,16.05
2022-10-14T18:59:20.297Z,16.00
2022-10-14T19:01:52.177Z,15.91
2022-10-14T19:04:22.037Z,15.89
2022-10-14T19:06:49.216Z,15.88
2022-10-14T19:09:29.208Z,15.90
2022-10-14T19:11:59.225Z,15.87
2022-10-14T19:14:26.881Z,15.89
2022-10-14T19:16:53.886Z,15.86
2022-10-14T19:19:20.888Z,15.91
2022-10-14T19:21:54.545Z,15.91
2022-10-14T19:24:22.153Z,15.88
2022-10-14T19:26:50.332Z,15.90
2022-10-14T19:29:17.972Z,15.89
2022-10-14T19:31:45.090Z,15.85
2022-10-14T19:34:15.063Z,15.84
2022-10-14T19:36:43.299Z,15.86
2022-10-14T19:39:12.436Z,15.82
2022-10-14T19:41:43.341Z,15.79
2022-10-14T19:44:11.827Z,15.81
2022-10-14T19:46:39.402Z,15.78
2022-10-14T19:49:06.867Z,15.80
2022-10-14T19:51:35.261Z,15.79
2022-10-14T19:54:02.797Z,15.80
2022-10-14T19:56:30.586Z,15.82
2022-10-14T19:58:59.060Z,15.75
2022-10-14T20:01:28.431Z,15.76
2022-10-14T20:03:55.712Z,15.76
2022-10-14T20:06:23.876Z,15.74
2022-10-14T20:08:51.510Z,15.72
2022-10-14T20:11:21.369Z,15.69
2022-10-14T20:13:48.987Z,15.69
2022-10-14T20:16:17.186Z,15.69
2022-10-14T20:18:44.059Z,15.70
2022-10-14T20:21:13.993Z,15.73
2022-10-14T20:23:41.766Z,15.72
2022-10-14T20:26:14.886Z,15.72
2022-10-14T20:28:42.283Z,15.72
2022-10-14T20:31:11.427Z,15.73
2022-10-14T20:33:38.585Z,15.74
2022-10-14T20:36:14.555Z,15.75
2022-10-14T20:38:42.126Z,15.78
2022-10-14T20:41:17.148Z,15.68
2022-10-14T20:43:45.017Z,15.71
2022-10-14T20:46:12.090Z,15.64
2022-10-14T20:48:39.280Z,15.71
2022-10-14T20:51:12.436Z,15.73
2022-10-14T20:56:27.975Z,15.67
2022-10-14T20:58:56.467Z,15.69
2022-10-14T21:01:24.146Z,15.69
2022-10-14T21:03:52.081Z,15.70
2022-10-14T21:06:21.814Z,15.58
2022-10-14T21:08:50.248Z,15.66
2022-10-14T21:11:19.966Z,15.65
2022-10-14T21:13:52.507Z,15.65
2022-10-14T21:16:31.426Z,15.62
2022-10-14T21:19:04.008Z,15.62
2022-10-14T21:21:35.341Z,15.57
2022-10-14T21:24:02.347Z,15.55
2022-10-14T21:26:30.066Z,15.50
2022-10-14T21:28:57.167Z,15.49
2022-10-14T21:31:24.886Z,15.47
2022-10-14T21:34:01.119Z,15.45
2022-10-14T21:36:31.478Z,15.45
2022-10-14T21:39:01.009Z,15.44
2022-10-14T21:41:28.529Z,15.47
2022-10-14T21:43:59.147Z,15.49
2022-10-14T21:46:27.335Z,15.47
2022-10-14T21:48:57.305Z,15.44
2022-10-14T21:51:30.456Z,15.45
2022-10-14T21:53:58.356Z,15.44
2022-10-14T21:56:26.225Z,15.45
2022-10-14T21:58:53.397Z,15.42
2022-10-14T22:01:27.265Z,15.42
2022-10-14T22:03:56.518Z,15.44
2022-10-14T22:06:23.878Z,15.41
2022-10-14T22:08:53.746Z,15.38
2022-10-14T22:11:27.526Z,15.37
2022-10-14T22:13:55.805Z,15.31
2022-10-14T22:16:23.505Z,15.32
2022-10-14T22:18:52.408Z,15.35
2022-10-14T22:21:21.607Z,15.37
2022-10-14T22:23:49.807Z,15.37
2022-10-14T22:26:22.781Z,15.37
2022-10-14T22:28:50.125Z,15.40
2022-10-14T22:31:20.156Z,15.42
2022-10-14T22:33:47.895Z,15.43
2022-10-14T22:36:20.870Z,15.46
2022-10-14T22:38:52.098Z,15.50
2022-10-14T22:41:20.913Z,15.50
2022-10-14T22:43:53.636Z,15.47
2022-10-14T22:46:23.796Z,15.45
2022-10-14T22:48:56.356Z,15.45
2022-10-14T22:53:54.576Z,15.38
2022-10-14T22:56:25.116Z,15.39
2022-10-14T22:58:56.407Z,15.38
2022-10-14T23:01:24.351Z,15.39
2022-10-14T23:03:51.383Z,15.37
2022-10-14T23:06:18.305Z,15.36
2022-10-14T23:08:45.425Z,15.29
2022-10-14T23:11:18.505Z,15.32
2022-10-14T23:13:46.085Z,15.30
2022-10-14T23:16:18.805Z,15.28
2022-10-14T23:18:46.707Z,15.23
2022-10-14T23:21:22.939Z,15.18
2022-10-14T23:23:51.233Z,15.13
2022-10-14T23:26:20.506Z,15.11
2022-10-14T23:28:52.820Z,15.03
2022-10-14T23:31:23.376Z,15.06
2022-10-14T23:33:52.503Z,15.06
2022-10-14T23:36:21.454Z,15.07
2022-10-14T23:38:49.572Z,15.06
2022-10-14T23:41:16.500Z,15.07
2022-10-14T23:43:43.782Z,15.07
2022-10-14T23:46:11.300Z,15.04
2022-10-14T23:48:38.400Z,15.06
2022-10-14T23:51:06.041Z,15.04
2022-10-14T23:53:33.720Z,15.06
2022-10-14T23:56:01.041Z,14.99
2022-10-14T23:58:29.981Z,14.98
